createdAt,value
2017-07-22T00:01:24.827Z,56.45
2017-07-22T00:03:53.893Z,57.25
2017-07-22T00:06:21.592Z,57.82
2017-07-22T00:08:49.257Z,58.76
2017-07-22T00:11:17.925Z,58.57
2017-07-22T00:13:45.701Z,58.33
2017-07-22T00:16:13.396Z,58.35
2017-07-22T00:18:44.372Z,58.58
2017-07-22T00:21:12.717Z,58.04
2017-07-22T00:23:40.774Z,58.20
2017-07-22T00:26:10.251Z,58.40
2017-07-22T00:28:39.509Z,57.89
2017-07-22T00:31:07.220Z,58.44
2017-07-22T00:33:34.840Z,57.94
2017-07-22T00:36:03.988Z,57.34
2017-07-22T00:38:32.640Z,57.71
2017-07-22T00:41:00.979Z,57.51
2017-07-22T00:43:30.180Z,56.84
2017-07-22T00:45:57.946Z,56.32
2017-07-22T00:48:26.232Z,55.81
2017-07-22T00:50:53.957Z,55.54
2017-07-22T00:53:21.717Z,55.48
2017-07-22T00:55:49.441Z,55.63
2017-07-22T00:58:17.180Z,55.52
2017-07-22T01:00:44.905Z,55.00
2017-07-22T01:03:12.592Z,55.06
2017-07-22T01:05:42.431Z,54.91
2017-07-22T01:08:10.199Z,55.43
2017-07-22T01:10:37.957Z,55.46
2017-07-22T01:13:05.647Z,55.69
2017-07-22T01:15:33.379Z,55.62
2017-07-22T01:18:01.210Z,55.67
2017-07-22T01:20:29.886Z,55.73
2017-07-22T01:22:57.582Z,56.39
2017-07-22T01:25:25.207Z,56.62
2017-07-22T01:27:52.942Z,56.96
2017-07-22T01:30:21.070Z,57.03
2017-07-22T01:32:48.914Z,57.29
2017-07-22T01:35:18.139Z,57.34
2017-07-22T01:37:45.881Z,57.09
2017-07-22T01:40:13.542Z,57.43
2017-07-22T01:42:41.915Z,57.35
2017-07-22T01:45:10.203Z,57.34
2017-07-22T01:47:38.126Z,57.60
2017-07-22T01:50:05.855Z,57.51
2017-07-22T01:52:33.523Z,57.77
2017-07-22T01:55:05.502Z,57.85
2017-07-22T01:57:33.663Z,57.91
2017-07-22T02:00:01.909Z,57.90
2017-07-22T02:02:44.028Z,58.14
2017-07-22T02:05:13.883Z,58.28
2017-07-22T02:07:50.741Z,58.45
2017-07-22T02:10:28.804Z,58.45
2017-07-22T02:13:00.457Z,58.37
2017-07-22T02:15:37.360Z,58.34
2017-07-22T02:18:13.361Z,58.39
2017-07-22T02:23:27.272Z,58.00
2017-07-22T02:26:09.619Z,58.29
2017-07-22T02:28:41.646Z,58.17
2017-07-22T02:31:15.988Z,57.98
2017-07-22T02:39:06.885Z,58.26
2017-07-22T02:41:37.297Z,58.50
2017-07-22T02:44:07.092Z,58.31
2017-07-22T02:46:35.749Z,58.62
2017-07-22T02:49:04.177Z,58.59
2017-07-22T02:51:31.989Z,58.16
2017-07-22T02:53:59.595Z,58.15
2017-07-22T02:56:29.197Z,58.31
2017-07-22T02:58:57.832Z,57.89
2017-07-22T03:01:25.584Z,57.88
2017-07-22T03:03:53.265Z,57.99
2017-07-22T03:06:20.935Z,58.10
2017-07-22T03:08:48.654Z,58.30
2017-07-22T03:11:17.159Z,58.25
2017-07-22T03:13:46.407Z,58.19
2017-07-22T03:16:14.155Z,58.23
2017-07-22T03:18:41.816Z,58.70
2017-07-22T03:21:09.493Z,58.81
2017-07-22T03:23:37.127Z,58.65
2017-07-22T03:26:05.723Z,58.34
2017-07-22T03:28:33.400Z,58.19
2017-07-22T03:31:01.474Z,58.18
2017-07-22T03:33:29.956Z,58.13
2017-07-22T03:35:58.611Z,58.29
2017-07-22T03:38:27.792Z,58.11
2017-07-22T03:41:09.795Z,58.35
2017-07-22T03:43:38.966Z,58.46
2017-07-22T03:46:17.116Z,58.39
2017-07-22T03:48:44.793Z,58.19
2017-07-22T03:51:13.402Z,57.82
2017-07-22T03:53:41.161Z,57.42
2017-07-22T03:56:12.020Z,56.67
2017-07-22T03:58:47.871Z,57.03
2017-07-22T04:01:20.875Z,57.16
2017-07-22T04:04:01.938Z,56.99
2017-07-22T04:06:30.178Z,57.40
2017-07-22T04:08:58.605Z,57.21
2017-07-22T04:11:27.676Z,57.30
2017-07-22T04:13:55.410Z,57.20
2017-07-22T04:16:23.058Z,56.95
2017-07-22T04:18:50.760Z,57.03
2017-07-22T04:21:18.456Z,57.01
2017-07-22T04:23:46.136Z,56.67
2017-07-22T04:26:13.841Z,56.16
2017-07-22T04:28:41.667Z,56.12
2017-07-22T04:31:09.341Z,55.67
2017-07-22T04:33:38.429Z,55.73
2017-07-22T04:36:06.070Z,55.48
2017-07-22T04:38:33.752Z,54.86
2017-07-22T04:41:01.421Z,54.79
2017-07-22T04:43:29.125Z,54.69
2017-07-22T04:45:56.802Z,55.04
2017-07-22T04:48:24.703Z,54.75
2017-07-22T04:50:52.401Z,54.76
2017-07-22T04:53:20.103Z,54.08
2017-07-22T04:55:48.068Z,53.63
2017-07-22T04:58:16.832Z,53.43
2017-07-22T05:00:46.840Z,53.02
2017-07-22T05:03:15.311Z,53.07
2017-07-22T05:05:43.047Z,52.72
2017-07-22T05:08:11.308Z,52.40
2017-07-22T05:10:38.977Z,52.58
2017-07-22T05:13:09.450Z,52.40
2017-07-22T05:15:37.191Z,51.90
2017-07-22T05:18:04.853Z,52.84
2017-07-22T05:20:33.153Z,52.91
2017-07-22T05:23:01.189Z,51.98
2017-07-22T05:25:28.921Z,51.25
2017-07-22T05:27:56.597Z,51.02
2017-07-22T05:30:24.286Z,50.54
2017-07-22T05:32:52.021Z,49.90
2017-07-22T05:35:19.702Z,49.32
2017-07-22T05:37:47.412Z,48.78
2017-07-22T05:40:15.140Z,48.21
2017-07-22T05:42:42.886Z,48.87
2017-07-22T05:45:10.634Z,48.09
2017-07-22T05:47:38.930Z,48.22
2017-07-22T05:50:06.611Z,47.62
2017-07-22T05:52:34.295Z,47.06
2017-07-22T05:55:02.214Z,46.27
2017-07-22T05:57:29.890Z,46.25
2017-07-22T05:59:57.601Z,45.79
2017-07-22T06:02:25.287Z,45.31
2017-07-22T06:04:53.223Z,45.10
2017-07-22T06:07:20.957Z,44.78
2017-07-22T06:09:48.689Z,44.79
2017-07-22T06:12:17.572Z,43.74
2017-07-22T06:14:45.342Z,43.15
2017-07-22T06:17:13.058Z,42.81
2017-07-22T06:19:40.786Z,42.45
2017-07-22T06:22:08.632Z,41.61
2017-07-22T06:24:37.104Z,41.52
2017-07-22T06:27:04.869Z,41.15
2017-07-22T06:29:32.629Z,40.82
2017-07-22T06:32:00.387Z,40.45
2017-07-22T06:34:28.044Z,40.23
2017-07-22T06:36:56.918Z,39.01
2017-07-22T06:39:24.662Z,39.01
2017-07-22T06:41:52.481Z,38.74
2017-07-22T06:44:20.208Z,38.30
2017-07-22T06:46:47.984Z,39.17
2017-07-22T06:49:15.674Z,39.69
2017-07-22T06:51:43.389Z,38.21
2017-07-22T06:54:11.165Z,37.96
2017-07-22T06:56:38.861Z,37.19
2017-07-22T06:59:06.571Z,36.97
2017-07-22T07:01:35.124Z,35.47
2017-07-22T07:04:02.875Z,37.57
2017-07-22T07:09:54.351Z,38.11
2017-07-22T07:12:22.102Z,37.92
2017-07-22T07:14:51.462Z,38.15
2017-07-22T07:17:20.132Z,37.37
2017-07-22T07:19:48.421Z,37.53
2017-07-22T07:22:16.599Z,38.39
2017-07-22T07:24:47.186Z,37.79
2017-07-22T07:30:44.912Z,37.70
2017-07-22T07:33:15.206Z,37.58
2017-07-22T07:35:45.984Z,36.76
2017-07-22T07:38:16.508Z,35.07
2017-07-22T07:44:14.729Z,35.43
2017-07-22T07:46:45.076Z,34.34
2017-07-22T07:52:37.012Z,34.09
2017-07-22T07:55:05.695Z,33.29
2017-07-22T07:57:36.474Z,31.98
2017-07-22T08:00:11.880Z,32.68
2017-07-22T08:02:41.129Z,33.97
2017-07-22T08:05:12.134Z,33.17
2017-07-22T08:07:41.183Z,30.37
2017-07-22T08:10:08.919Z,31.99
2017-07-22T08:12:36.914Z,31.02
2017-07-22T08:15:05.047Z,29.96
2017-07-22T08:17:32.975Z,31.14
2017-07-22T08:20:01.135Z,29.75
2017-07-22T08:22:28.988Z,29.10
2017-07-22T08:24:56.911Z,29.28
2017-07-22T08:27:24.927Z,28.74
2017-07-22T08:29:53.613Z,28.92
2017-07-22T08:32:21.617Z,30.20
2017-07-22T08:34:50.794Z,31.14
2017-07-22T08:37:18.683Z,30.98
2017-07-22T08:39:46.579Z,30.19
2017-07-22T08:42:14.601Z,30.23
2017-07-22T08:44:42.603Z,30.40
2017-07-22T08:47:10.455Z,28.45
2017-07-22T08:49:38.410Z,27.79
2017-07-22T08:52:06.493Z,29.11
2017-07-22T08:54:34.418Z,29.11
2017-07-22T08:57:02.495Z,29.01
2017-07-22T08:59:31.292Z,27.69
2017-07-22T09:02:00.084Z,27.88
2017-07-22T09:04:28.870Z,28.63
2017-07-22T09:06:56.995Z,29.93
2017-07-22T09:09:25.755Z,27.91
2017-07-22T09:11:54.484Z,28.59
2017-07-22T09:14:23.464Z,28.35
2017-07-22T09:16:52.940Z,29.10
2017-07-22T09:19:22.163Z,28.47
2017-07-22T09:21:50.354Z,29.01
2017-07-22T09:24:18.277Z,28.62
2017-07-22T09:26:47.865Z,28.41
2017-07-22T09:29:18.078Z,28.31
2017-07-22T09:31:52.772Z,27.40
2017-07-22T09:34:21.584Z,28.29
2017-07-22T09:36:50.260Z,27.60
2017-07-22T09:39:18.651Z,26.65
2017-07-22T09:41:47.729Z,27.26
2017-07-22T09:44:16.107Z,26.45
2017-07-22T09:46:44.332Z,26.13
2017-07-22T09:49:12.570Z,25.00
2017-07-22T09:51:40.827Z,24.32
2017-07-22T09:54:10.187Z,25.64
2017-07-22T09:56:39.154Z,25.13
2017-07-22T09:59:08.316Z,25.24
2017-07-22T10:01:36.187Z,25.37
2017-07-22T10:07:25.890Z,24.68
2017-07-22T10:09:53.823Z,23.90
2017-07-22T10:12:21.729Z,23.68
2017-07-22T10:14:51.354Z,23.75
2017-07-22T10:17:19.864Z,22.99
2017-07-22T10:19:47.910Z,23.07
2017-07-22T10:22:16.579Z,23.05
2017-07-22T10:24:45.656Z,22.01
2017-07-22T10:27:14.074Z,21.67
2017-07-22T10:29:42.864Z,21.27
2017-07-22T10:32:12.092Z,21.20
2017-07-22T10:34:41.529Z,20.98
2017-07-22T10:37:09.318Z,20.32
2017-07-22T10:39:37.579Z,20.45
2017-07-22T10:42:06.241Z,21.39
2017-07-22T10:44:41.303Z,22.10
2017-07-22T10:47:09.866Z,22.12
2017-07-22T10:49:37.801Z,22.08
2017-07-22T10:52:06.356Z,22.06
2017-07-22T10:54:35.245Z,22.50
2017-07-22T10:57:03.817Z,20.85
2017-07-22T10:59:32.017Z,20.38
2017-07-22T11:02:00.913Z,19.95
2017-07-22T11:04:28.872Z,19.66
2017-07-22T11:06:57.588Z,18.69
2017-07-22T11:09:25.583Z,18.89
2017-07-22T11:11:55.682Z,18.24
2017-07-22T11:14:35.712Z,19.22
2017-07-22T11:17:05.130Z,19.28
2017-07-22T11:19:33.194Z,19.81
2017-07-22T11:22:01.219Z,19.30
2017-07-22T11:24:30.090Z,18.75
2017-07-22T11:27:02.494Z,19.23
2017-07-22T11:29:34.341Z,19.01
2017-07-22T11:32:13.535Z,19.29
2017-07-22T11:34:44.024Z,19.84
2017-07-22T11:37:15.278Z,20.24
2017-07-22T11:39:44.506Z,19.57
2017-07-22T11:42:16.556Z,19.71
2017-07-22T11:44:48.494Z,19.82
2017-07-22T11:47:20.247Z,20.10
2017-07-22T11:49:56.080Z,20.13
2017-07-22T11:52:25.129Z,20.76
2017-07-22T11:55:08.320Z,20.56
2017-07-22T11:57:39.539Z,19.99
2017-07-22T12:00:09.647Z,20.21
2017-07-22T12:02:39.317Z,20.62
2017-07-22T12:05:09.741Z,20.82
2017-07-22T12:07:41.611Z,20.04
2017-07-22T12:10:10.551Z,20.78
2017-07-22T12:12:39.343Z,20.57
2017-07-22T12:15:11.089Z,20.86
2017-07-22T12:17:40.053Z,21.16
2017-07-22T12:20:09.537Z,21.43
2017-07-22T12:22:37.993Z,20.95
2017-07-22T12:25:06.498Z,20.55
2017-07-22T12:27:35.506Z,20.67
2017-07-22T12:30:07.989Z,20.82
2017-07-22T12:32:36.782Z,20.76
2017-07-22T12:35:09.567Z,21.22
2017-07-22T12:37:37.581Z,21.53
2017-07-22T12:40:05.546Z,21.32
2017-07-22T12:42:35.869Z,21.30
2017-07-22T12:45:05.891Z,21.92
2017-07-22T12:50:11.877Z,21.39
2017-07-22T12:52:47.508Z,21.16
2017-07-22T12:55:18.358Z,21.21
2017-07-22T12:57:47.238Z,21.15
2017-07-22T13:00:19.686Z,20.74
2017-07-22T13:05:40.760Z,20.81
2017-07-22T13:08:09.894Z,20.60
2017-07-22T13:10:40.500Z,20.66
2017-07-22T13:13:16.196Z,21.09
2017-07-22T13:15:46.204Z,21.17
2017-07-22T13:18:19.582Z,21.31
2017-07-22T13:20:53.497Z,21.19
2017-07-22T13:23:21.194Z,21.16
2017-07-22T13:25:58.031Z,21.59
2017-07-22T13:28:27.677Z,21.88
2017-07-22T13:30:58.133Z,21.83
2017-07-22T13:33:30.932Z,21.84
2017-07-22T13:36:05.290Z,22.03
2017-07-22T13:38:44.112Z,21.74
2017-07-22T13:41:16.366Z,21.04
2017-07-22T13:43:50.432Z,20.98
2017-07-22T13:46:19.583Z,21.24
2017-07-22T13:48:47.781Z,20.49
2017-07-22T13:51:20.595Z,20.70
2017-07-22T13:53:52.305Z,21.45
2017-07-22T13:56:24.103Z,21.27
2017-07-22T13:58:52.694Z,21.49
2017-07-22T14:01:28.563Z,21.47
2017-07-22T14:03:57.968Z,21.59
2017-07-22T14:06:29.448Z,22.00
2017-07-22T14:09:03.141Z,21.91
2017-07-22T14:11:35.687Z,22.23
2017-07-22T14:14:07.947Z,22.50
2017-07-22T14:16:35.576Z,22.79
2017-07-22T14:19:03.195Z,22.61
2017-07-22T14:21:30.786Z,22.62
2017-07-22T14:23:58.425Z,22.17
2017-07-22T14:26:26.037Z,22.58
2017-07-22T14:28:53.611Z,22.33
2017-07-22T14:31:21.214Z,22.19
2017-07-22T14:33:48.955Z,22.57
2017-07-22T14:36:16.594Z,22.13
2017-07-22T14:38:44.459Z,22.26
2017-07-22T14:41:12.070Z,21.95
2017-07-22T14:43:40.159Z,22.04
2017-07-22T14:46:07.815Z,22.04
2017-07-22T14:48:37.403Z,21.96
2017-07-22T14:51:05.127Z,21.80
2017-07-22T14:53:33.512Z,22.13
2017-07-22T14:56:01.836Z,22.33
2017-07-22T14:58:29.565Z,22.21
2017-07-22T15:00:57.287Z,21.99
2017-07-22T15:03:25.026Z,21.99
2017-07-22T15:05:52.718Z,22.21
2017-07-22T15:08:21.014Z,21.74
2017-07-22T15:10:48.668Z,21.82
2017-07-22T15:13:16.349Z,21.94
2017-07-22T15:15:44.529Z,22.04
2017-07-22T15:18:12.153Z,21.99
2017-07-22T15:20:39.699Z,22.06
2017-07-22T15:23:07.433Z,22.24
2017-07-22T15:25:35.012Z,21.83
2017-07-22T15:28:02.677Z,22.28
2017-07-22T15:30:30.445Z,22.55
2017-07-22T15:32:58.268Z,22.84
2017-07-22T15:35:25.896Z,23.08
2017-07-22T15:37:53.498Z,22.88
2017-07-22T15:40:22.820Z,23.42
2017-07-22T15:42:50.522Z,23.32
2017-07-22T15:45:18.164Z,23.22
2017-07-22T15:47:45.742Z,23.17
2017-07-22T15:50:13.877Z,23.03
2017-07-22T15:52:41.566Z,23.17
2017-07-22T15:55:09.274Z,23.08
2017-07-22T15:57:37.092Z,23.09
2017-07-22T16:00:07.892Z,23.78
2017-07-22T16:02:35.468Z,24.11
2017-07-22T16:05:03.169Z,24.57
2017-07-22T16:07:31.221Z,24.69
2017-07-22T16:09:59.051Z,25.17
2017-07-22T16:12:26.862Z,25.13
2017-07-22T16:14:54.589Z,24.00
2017-07-22T16:17:22.403Z,24.35
2017-07-22T16:19:50.230Z,25.06
2017-07-22T16:22:17.870Z,25.28
2017-07-22T16:24:45.523Z,26.26
2017-07-22T16:27:13.891Z,26.26
2017-07-22T16:29:41.519Z,26.64
2017-07-22T16:32:09.106Z,26.85
2017-07-22T16:34:36.703Z,27.22
2017-07-22T16:37:04.853Z,27.00
2017-07-22T16:39:32.504Z,27.66
2017-07-22T16:42:00.087Z,27.23
2017-07-22T16:44:27.687Z,27.07
2017-07-22T16:46:55.318Z,26.84
2017-07-22T16:49:22.910Z,26.42
2017-07-22T16:51:50.465Z,26.87
2017-07-22T16:54:18.111Z,28.53
2017-07-22T16:56:45.703Z,28.87
2017-07-22T16:59:14.026Z,29.22
2017-07-22T17:01:42.530Z,28.98
2017-07-22T17:04:10.147Z,29.02
2017-07-22T17:06:37.960Z,29.02
2017-07-22T17:09:05.609Z,29.25
2017-07-22T17:11:33.174Z,29.43
2017-07-22T17:14:00.775Z,29.71
2017-07-22T17:16:28.466Z,30.04
2017-07-22T17:18:56.481Z,30.15
2017-07-22T17:21:24.049Z,30.21
2017-07-22T17:23:52.487Z,30.59
2017-07-22T17:26:20.107Z,30.59
2017-07-22T17:28:47.684Z,31.07
2017-07-22T17:31:15.395Z,31.24
2017-07-22T17:33:43.253Z,30.91
2017-07-22T17:36:10.869Z,31.24
2017-07-22T17:38:38.541Z,31.28
2017-07-22T17:41:06.319Z,31.37
2017-07-22T17:43:33.894Z,32.14
2017-07-22T17:46:01.547Z,32.23
2017-07-22T17:48:29.147Z,32.43
2017-07-22T17:50:56.826Z,32.53
2017-07-22T17:53:24.564Z,32.84
2017-07-22T17:55:52.255Z,33.05
2017-07-22T17:58:20.009Z,32.78
2017-07-22T18:00:47.733Z,33.17
2017-07-22T18:03:15.379Z,33.58
2017-07-22T18:05:43.141Z,33.56
2017-07-22T18:08:10.956Z,33.78
2017-07-22T18:10:38.781Z,33.80
2017-07-22T18:13:06.475Z,34.03
2017-07-22T18:15:36.920Z,34.46
2017-07-22T18:18:04.735Z,34.51
2017-07-22T18:20:33.536Z,34.81
2017-07-22T18:23:01.254Z,35.02
2017-07-22T18:25:33.623Z,35.12
2017-07-22T18:28:01.299Z,35.55
2017-07-22T18:30:29.276Z,35.71
2017-07-22T18:32:58.603Z,36.08
2017-07-22T18:35:26.389Z,36.48
2017-07-22T18:37:54.111Z,36.54
2017-07-22T18:40:21.889Z,36.80
2017-07-22T18:42:49.616Z,37.03
2017-07-22T18:45:17.450Z,37.26
2017-07-22T18:47:45.291Z,37.50
2017-07-22T18:50:14.549Z,37.46
2017-07-22T18:52:42.213Z,37.80
2017-07-22T18:55:10.039Z,38.01
2017-07-22T18:57:37.719Z,37.98
2017-07-22T19:00:07.964Z,37.95
2017-07-22T19:02:41.161Z,38.22
2017-07-22T19:05:12.097Z,38.40
2017-07-22T19:07:43.544Z,38.79
2017-07-22T19:10:28.798Z,38.99
2017-07-22T19:13:07.155Z,38.99
2017-07-22T19:15:52.269Z,39.42
2017-07-22T19:18:25.546Z,39.85
2017-07-22T19:20:53.568Z,40.64
2017-07-22T19:23:21.986Z,41.17
2017-07-22T19:25:50.613Z,41.61
2017-07-22T19:28:18.574Z,41.65
2017-07-22T19:30:46.377Z,41.15
2017-07-22T19:33:15.654Z,41.54
2017-07-22T19:35:46.388Z,41.75
2017-07-22T19:38:15.697Z,41.44
2017-07-22T19:40:43.462Z,41.74
2017-07-22T19:43:11.127Z,41.86
2017-07-22T19:45:39.007Z,42.02
2017-07-22T19:48:07.419Z,41.89
2017-07-22T19:50:35.114Z,41.78
2017-07-22T19:53:02.806Z,41.74
2017-07-22T19:55:30.554Z,41.88
2017-07-22T19:57:58.391Z,41.46
2017-07-22T20:00:26.517Z,41.23
2017-07-22T20:02:54.403Z,42.19
2017-07-22T20:05:23.907Z,41.85
2017-07-22T20:11:12.800Z,42.14
2017-07-22T20:13:40.838Z,42.05
2017-07-22T20:16:09.152Z,41.95
2017-07-22T20:18:37.065Z,41.75
2017-07-22T20:21:05.412Z,42.36
2017-07-22T20:23:36.694Z,42.21
2017-07-22T20:26:04.460Z,42.17
2017-07-22T20:28:33.595Z,42.64
2017-07-22T20:31:02.124Z,41.98
2017-07-22T20:33:29.916Z,42.08
2017-07-22T20:36:01.066Z,42.57
2017-07-22T20:41:03.459Z,42.83
2017-07-22T20:43:31.174Z,42.23
2017-07-22T20:46:00.267Z,42.15
2017-07-22T20:48:27.955Z,42.23
2017-07-22T20:50:55.680Z,43.40
2017-07-22T20:53:23.320Z,43.24
2017-07-22T20:55:50.982Z,43.16
2017-07-22T20:58:18.873Z,43.54
2017-07-22T21:00:47.111Z,43.60
2017-07-22T21:03:14.925Z,44.05
2017-07-22T21:05:42.653Z,44.04
2017-07-22T21:08:10.395Z,44.38
2017-07-22T21:10:38.073Z,44.43
2017-07-22T21:13:05.777Z,44.40
2017-07-22T21:15:33.445Z,44.60
2017-07-22T21:18:02.420Z,44.45
2017-07-22T21:20:30.049Z,44.51
2017-07-22T21:23:02.179Z,44.80
2017-07-22T21:25:29.939Z,45.06
2017-07-22T21:28:00.505Z,45.67
2017-07-22T21:30:28.323Z,45.50
2017-07-22T21:32:56.004Z,45.12
2017-07-22T21:35:23.846Z,44.80
2017-07-22T21:37:51.605Z,44.91
2017-07-22T21:40:19.325Z,44.14
2017-07-22T21:42:48.633Z,44.61
2017-07-22T21:49:27.893Z,45.33
2017-07-22T21:51:55.512Z,45.45
2017-07-22T21:54:24.507Z,45.28
2017-07-22T21:56:52.237Z,45.44
2017-07-22T21:59:20.771Z,45.08
2017-07-22T22:01:48.420Z,45.17
2017-07-22T22:04:16.159Z,45.32
2017-07-22T22:06:44.031Z,45.39
2017-07-22T22:09:11.649Z,45.11
2017-07-22T22:11:39.533Z,45.47
2017-07-22T22:14:07.686Z,45.30
2017-07-22T22:16:35.465Z,45.93
2017-07-22T22:19:03.247Z,45.98
2017-07-22T22:21:30.912Z,46.12
2017-07-22T22:23:58.531Z,45.57
2017-07-22T22:26:26.164Z,45.42
2017-07-22T22:28:55.498Z,45.83
2017-07-22T22:31:26.084Z,45.99
2017-07-22T22:33:56.295Z,46.12
2017-07-22T22:36:25.571Z,45.11
2017-07-22T22:38:53.247Z,45.10
2017-07-22T22:41:21.881Z,44.99
2017-07-22T22:43:49.471Z,44.92
2017-07-22T22:46:17.344Z,45.17
2017-07-22T22:48:45.044Z,45.13
2017-07-22T22:51:12.636Z,45.59
2017-07-22T22:53:42.809Z,45.84
2017-07-22T22:56:10.947Z,46.26
2017-07-22T22:58:41.088Z,46.80
2017-07-22T23:01:10.159Z,46.40
2017-07-22T23:03:38.879Z,46.35
2017-07-22T23:06:07.075Z,46.33
2017-07-22T23:08:34.754Z,46.39
2017-07-22T23:11:02.470Z,47.66
2017-07-22T23:13:30.119Z,48.12
2017-07-22T23:15:57.782Z,48.32
2017-07-22T23:18:25.412Z,48.11
2017-07-22T23:20:52.974Z,47.84
2017-07-22T23:23:21.418Z,47.36
2017-07-22T23:25:49.172Z,47.18
2017-07-22T23:28:18.094Z,47.24
2017-07-22T23:30:45.912Z,46.83
2017-07-22T23:33:14.390Z,47.05
2017-07-22T23:35:42.051Z,47.09
2017-07-22T23:38:09.827Z,47.27
2017-07-22T23:40:38.428Z,47.79
2017-07-22T23:43:06.003Z,49.12
2017-07-22T23:45:33.624Z,50.64
2017-07-22T23:48:02.134Z,50.34
2017-07-22T23:50:29.876Z,50.88
2017-07-22T23:52:58.234Z,53.31
2017-07-22T23:55:25.855Z,56.30
2017-07-22T23:57:53.834Z,58.86
